sensor_id;sensor_type;location;lat;lon;timestamp;P1;durP1;ratioP1;P2;durP2;ratioP2
75932;SDS011;64803;52.356;5.310;2023-05-24T00:00:41;18.92;;;2.38;;
75932;SDS011;64803;52.356;5.310;2023-05-24T00:03:07;7.53;;;2.08;;
75932;SDS011;64803;52.356;5.310;2023-05-24T00:05:33;12.13;;;2.15;;
75932;SDS011;64803;52.356;5.310;2023-05-24T00:08:02;10.55;;;2.30;;
75932;SDS011;64803;52.356;5.310;2023-05-24T00:10:28;11.27;;;2.50;;
75932;SDS011;64803;52.356;5.310;2023-05-24T00:12:54;9.93;;;2.03;;
75932;SDS011;64803;52.356;5.310;2023-05-24T00:15:20;9.45;;;2.17;;
75932;SDS011;64803;52.356;5.310;2023-05-24T00:17:46;8.35;;;1.85;;
75932;SDS011;64803;52.356;5.310;2023-05-24T00:20:12;13.00;;;2.00;;
75932;SDS011;64803;52.356;5.310;2023-05-24T00:22:39;13.43;;;2.55;;
75932;SDS011;64803;52.356;5.310;2023-05-24T00:25:06;13.38;;;2.25;;
75932;SDS011;64803;52.356;5.310;2023-05-24T00:27:32;9.88;;;2.72;;
75932;SDS011;64803;52.356;5.310;2023-05-24T00:29:58;15.82;;;3.13;;
75932;SDS011;64803;52.356;5.310;2023-05-24T00:32:24;10.85;;;2.60;;
75932;SDS011;64803;52.356;5.310;2023-05-24T00:34:50;15.48;;;2.72;;
75932;SDS011;64803;52.356;5.310;2023-05-24T00:37:16;15.07;;;2.35;;
75932;SDS011;64803;52.356;5.310;2023-05-24T00:39:42;18.00;;;3.60;;
75932;SDS011;64803;52.356;5.310;2023-05-24T00:42:09;22.50;;;2.95;;
75932;SDS011;64803;52.356;5.310;2023-05-24T00:44:35;16.02;;;3.33;;
75932;SDS011;64803;52.356;5.310;2023-05-24T00:47:01;15.70;;;2.83;;
75932;SDS011;64803;52.356;5.310;2023-05-24T00:49:27;17.23;;;3.13;;
75932;SDS011;64803;52.356;5.310;2023-05-24T00:51:53;20.02;;;3.05;;
75932;SDS011;64803;52.356;5.310;2023-05-24T00:54:20;16.10;;;3.03;;
75932;SDS011;64803;52.356;5.310;2023-05-24T00:56:46;11.32;;;2.53;;
75932;SDS011;64803;52.356;5.310;2023-05-24T00:59:13;18.08;;;2.92;;
75932;SDS011;64803;52.356;5.310;2023-05-24T01:01:40;17.85;;;2.90;;
75932;SDS011;64803;52.356;5.310;2023-05-24T01:04:06;16.88;;;2.65;;
75932;SDS011;64803;52.356;5.310;2023-05-24T01:06:37;14.20;;;2.53;;
75932;SDS011;64803;52.356;5.310;2023-05-24T01:14:59;10.52;;;2.03;;
75932;SDS011;64803;52.356;5.310;2023-05-24T01:17:36;17.08;;;2.65;;
75932;SDS011;64803;52.356;5.310;2023-05-24T01:20:11;12.30;;;2.80;;
75932;SDS011;64803;52.356;5.310;2023-05-24T01:28:01;16.90;;;2.47;;
75932;SDS011;64803;52.356;5.310;2023-05-24T01:30:28;15.23;;;2.83;;
75932;SDS011;64803;52.356;5.310;2023-05-24T01:32:55;17.90;;;2.42;;
75932;SDS011;64803;52.356;5.310;2023-05-24T01:35:21;16.67;;;2.55;;
75932;SDS011;64803;52.356;5.310;2023-05-24T01:37:47;22.98;;;3.58;;
75932;SDS011;64803;52.356;5.310;2023-05-24T01:40:13;12.63;;;2.03;;
75932;SDS011;64803;52.356;5.310;2023-05-24T01:48:07;22.15;;;3.00;;
75932;SDS011;64803;52.356;5.310;2023-05-24T01:50:56;18.70;;;2.55;;
75932;SDS011;64803;52.356;5.310;2023-05-24T01:53:24;15.15;;;3.47;;
75932;SDS011;64803;52.356;5.310;2023-05-24T01:55:58;16.60;;;2.97;;
75932;SDS011;64803;52.356;5.310;2023-05-24T01:58:26;11.85;;;1.85;;
75932;SDS011;64803;52.356;5.310;2023-05-24T02:00:55;22.90;;;3.53;;
75932;SDS011;64803;52.356;5.310;2023-05-24T02:03:22;16.80;;;2.83;;
75932;SDS011;64803;52.356;5.310;2023-05-24T02:05:48;19.13;;;3.47;;
75932;SDS011;64803;52.356;5.310;2023-05-24T02:08:15;21.95;;;3.40;;
75932;SDS011;64803;52.356;5.310;2023-05-24T02:10:41;25.85;;;3.20;;
75932;SDS011;64803;52.356;5.310;2023-05-24T02:13:07;27.48;;;3.55;;
75932;SDS011;64803;52.356;5.310;2023-05-24T02:15:33;17.63;;;3.13;;
75932;SDS011;64803;52.356;5.310;2023-05-24T02:18:03;19.40;;;2.85;;
75932;SDS011;64803;52.356;5.310;2023-05-24T02:20:32;15.68;;;2.83;;
75932;SDS011;64803;52.356;5.310;2023-05-24T02:23:02;11.35;;;2.75;;
75932;SDS011;64803;52.356;5.310;2023-05-24T02:25:29;17.02;;;3.22;;
75932;SDS011;64803;52.356;5.310;2023-05-24T02:27:56;14.95;;;2.53;;
75932;SDS011;64803;52.356;5.310;2023-05-24T02:30:23;23.05;;;3.22;;
75932;SDS011;64803;52.356;5.310;2023-05-24T02:32:49;35.67;;;4.43;;
75932;SDS011;64803;52.356;5.310;2023-05-24T02:35:15;17.40;;;2.85;;
75932;SDS011;64803;52.356;5.310;2023-05-24T02:37:41;19.33;;;3.28;;
75932;SDS011;64803;52.356;5.310;2023-05-24T02:40:07;16.27;;;3.45;;
75932;SDS011;64803;52.356;5.310;2023-05-24T02:42:34;18.70;;;2.53;;
75932;SDS011;64803;52.356;5.310;2023-05-24T02:45:00;19.50;;;2.83;;
75932;SDS011;64803;52.356;5.310;2023-05-24T02:47:26;12.00;;;2.95;;
75932;SDS011;64803;52.356;5.310;2023-05-24T02:49:52;25.20;;;3.08;;
75932;SDS011;64803;52.356;5.310;2023-05-24T02:52:19;12.77;;;2.35;;
75932;SDS011;64803;52.356;5.310;2023-05-24T02:54:48;16.60;;;3.00;;
75932;SDS011;64803;52.356;5.310;2023-05-24T02:57:16;16.92;;;3.50;;
75932;SDS011;64803;52.356;5.310;2023-05-24T02:59:43;26.33;;;4.03;;
75932;SDS011;64803;52.356;5.310;2023-05-24T03:02:10;21.85;;;3.53;;
75932;SDS011;64803;52.356;5.310;2023-05-24T03:04:38;12.07;;;2.97;;
75932;SDS011;64803;52.356;5.310;2023-05-24T03:07:06;15.20;;;3.63;;
75932;SDS011;64803;52.356;5.310;2023-05-24T03:09:32;21.60;;;4.22;;
75932;SDS011;64803;52.356;5.310;2023-05-24T03:11:58;15.52;;;3.13;;
75932;SDS011;64803;52.356;5.310;2023-05-24T03:14:25;16.13;;;3.60;;
75932;SDS011;64803;52.356;5.310;2023-05-24T03:16:51;16.05;;;2.97;;
75932;SDS011;64803;52.356;5.310;2023-05-24T03:19:17;19.52;;;3.13;;
75932;SDS011;64803;52.356;5.310;2023-05-24T03:21:43;23.85;;;4.07;;
75932;SDS011;64803;52.356;5.310;2023-05-24T03:24:09;15.68;;;3.30;;
75932;SDS011;64803;52.356;5.310;2023-05-24T03:26:35;16.75;;;3.28;;
75932;SDS011;64803;52.356;5.310;2023-05-24T03:29:01;16.20;;;3.15;;
75932;SDS011;64803;52.356;5.310;2023-05-24T03:31:34;19.38;;;3.33;;
75932;SDS011;64803;52.356;5.310;2023-05-24T03:34:01;15.13;;;2.85;;
75932;SDS011;64803;52.356;5.310;2023-05-24T03:36:28;13.85;;;3.20;;
75932;SDS011;64803;52.356;5.310;2023-05-24T03:38:54;18.38;;;3.30;;
75932;SDS011;64803;52.356;5.310;2023-05-24T03:41:23;19.02;;;2.65;;
75932;SDS011;64803;52.356;5.310;2023-05-24T03:43:50;10.77;;;3.03;;
75932;SDS011;64803;52.356;5.310;2023-05-24T03:46:17;14.88;;;2.65;;
75932;SDS011;64803;52.356;5.310;2023-05-24T03:48:43;16.75;;;2.75;;
75932;SDS011;64803;52.356;5.310;2023-05-24T03:51:09;16.13;;;3.00;;
75932;SDS011;64803;52.356;5.310;2023-05-24T03:53:35;16.13;;;3.15;;
75932;SDS011;64803;52.356;5.310;2023-05-24T03:56:01;13.70;;;2.72;;
75932;SDS011;64803;52.356;5.310;2023-05-24T03:58:27;17.13;;;2.53;;
75932;SDS011;64803;52.356;5.310;2023-05-24T04:00:53;14.52;;;2.45;;
75932;SDS011;64803;52.356;5.310;2023-05-24T04:03:20;16.90;;;2.90;;
75932;SDS011;64803;52.356;5.310;2023-05-24T04:05:46;16.17;;;3.15;;
75932;SDS011;64803;52.356;5.310;2023-05-24T04:08:12;12.65;;;2.50;;
75932;SDS011;64803;52.356;5.310;2023-05-24T04:10:40;18.60;;;2.85;;
75932;SDS011;64803;52.356;5.310;2023-05-24T04:13:09;19.48;;;2.67;;
75932;SDS011;64803;52.356;5.310;2023-05-24T04:15:36;12.75;;;2.30;;
75932;SDS011;64803;52.356;5.310;2023-05-24T04:18:05;18.35;;;3.17;;
75932;SDS011;64803;52.356;5.310;2023-05-24T04:20:33;19.35;;;2.40;;
75932;SDS011;64803;52.356;5.310;2023-05-24T04:22:59;14.32;;;2.55;;
75932;SDS011;64803;52.356;5.310;2023-05-24T04:25:25;18.58;;;2.92;;
75932;SDS011;64803;52.356;5.310;2023-05-24T04:27:53;17.02;;;2.40;;
75932;SDS011;64803;52.356;5.310;2023-05-24T04:30:20;15.93;;;2.38;;
75932;SDS011;64803;52.356;5.310;2023-05-24T04:32:46;16.70;;;2.63;;
75932;SDS011;64803;52.356;5.310;2023-05-24T04:35:13;9.63;;;2.17;;
75932;SDS011;64803;52.356;5.310;2023-05-24T04:37:40;22.50;;;3.17;;
75932;SDS011;64803;52.356;5.310;2023-05-24T04:40:06;16.92;;;3.53;;
75932;SDS011;64803;52.356;5.310;2023-05-24T04:42:33;11.00;;;2.17;;
75932;SDS011;64803;52.356;5.310;2023-05-24T04:44:59;13.73;;;2.25;;
75932;SDS011;64803;52.356;5.310;2023-05-24T04:47:25;11.60;;;2.25;;
75932;SDS011;64803;52.356;5.310;2023-05-24T04:49:51;10.40;;;2.08;;
75932;SDS011;64803;52.356;5.310;2023-05-24T04:52:18;11.35;;;2.95;;
75932;SDS011;64803;52.356;5.310;2023-05-24T04:54:44;21.77;;;4.00;;
75932;SDS011;64803;52.356;5.310;2023-05-24T04:57:11;12.68;;;1.83;;
75932;SDS011;64803;52.356;5.310;2023-05-24T04:59:37;12.77;;;2.15;;
75932;SDS011;64803;52.356;5.310;2023-05-24T05:02:03;14.68;;;2.15;;
75932;SDS011;64803;52.356;5.310;2023-05-24T05:04:29;11.45;;;2.65;;
75932;SDS011;64803;52.356;5.310;2023-05-24T05:06:55;19.27;;;2.75;;
75932;SDS011;64803;52.356;5.310;2023-05-24T05:09:22;13.38;;;2.55;;
75932;SDS011;64803;52.356;5.310;2023-05-24T05:11:49;14.80;;;2.30;;
75932;SDS011;64803;52.356;5.310;2023-05-24T05:14:15;12.45;;;2.33;;
75932;SDS011;64803;52.356;5.310;2023-05-24T05:16:42;14.27;;;2.53;;
75932;SDS011;64803;52.356;5.310;2023-05-24T05:19:08;15.93;;;1.83;;
75932;SDS011;64803;52.356;5.310;2023-05-24T05:21:33;23.60;;;2.60;;
75932;SDS011;64803;52.356;5.310;2023-05-24T05:24:01;17.58;;;2.55;;
75932;SDS011;64803;52.356;5.310;2023-05-24T05:26:27;10.10;;;2.42;;
75932;SDS011;64803;52.356;5.310;2023-05-24T05:28:55;6.95;;;1.23;;
75932;SDS011;64803;52.356;5.310;2023-05-24T05:31:21;14.65;;;3.33;;
75932;SDS011;64803;52.356;5.310;2023-05-24T05:33:48;9.70;;;1.60;;
75932;SDS011;64803;52.356;5.310;2023-05-24T05:36:14;14.90;;;2.95;;
75932;SDS011;64803;52.356;5.310;2023-05-24T05:38:40;11.60;;;2.13;;
75932;SDS011;64803;52.356;5.310;2023-05-24T05:41:07;16.35;;;2.20;;
75932;SDS011;64803;52.356;5.310;2023-05-24T05:43:33;11.73;;;2.17;;
75932;SDS011;64803;52.356;5.310;2023-05-24T05:45:59;15.85;;;2.90;;
75932;SDS011;64803;52.356;5.310;2023-05-24T05:48:25;15.63;;;1.90;;
75932;SDS011;64803;52.356;5.310;2023-05-24T05:50:51;11.63;;;2.88;;
75932;SDS011;64803;52.356;5.310;2023-05-24T05:53:17;16.20;;;2.95;;
75932;SDS011;64803;52.356;5.310;2023-05-24T05:55:43;11.40;;;1.50;;
75932;SDS011;64803;52.356;5.310;2023-05-24T05:58:09;8.80;;;2.08;;
75932;SDS011;64803;52.356;5.310;2023-05-24T06:00:37;15.57;;;2.30;;
75932;SDS011;64803;52.356;5.310;2023-05-24T06:03:03;11.75;;;1.98;;
75932;SDS011;64803;52.356;5.310;2023-05-24T06:05:29;16.05;;;2.75;;
75932;SDS011;64803;52.356;5.310;2023-05-24T06:07:55;14.02;;;2.55;;
75932;SDS011;64803;52.356;5.310;2023-05-24T06:10:21;12.52;;;1.75;;
75932;SDS011;64803;52.356;5.310;2023-05-24T06:12:47;10.07;;;1.95;;
75932;SDS011;64803;52.356;5.310;2023-05-24T06:15:13;9.27;;;1.60;;
75932;SDS011;64803;52.356;5.310;2023-05-24T06:17:39;11.50;;;1.73;;
75932;SDS011;64803;52.356;5.310;2023-05-24T06:20:06;11.93;;;2.13;;
75932;SDS011;64803;52.356;5.310;2023-05-24T06:22:40;10.02;;;1.60;;
75932;SDS011;64803;52.356;5.310;2023-05-24T06:25:07;7.25;;;1.92;;
75932;SDS011;64803;52.356;5.310;2023-05-24T06:27:34;10.65;;;1.63;;
75932;SDS011;64803;52.356;5.310;2023-05-24T06:30:00;9.55;;;1.45;;
75932;SDS011;64803;52.356;5.310;2023-05-24T06:32:26;11.10;;;2.03;;
75932;SDS011;64803;52.356;5.310;2023-05-24T06:34:52;11.65;;;2.65;;
75932;SDS011;64803;52.356;5.310;2023-05-24T06:37:18;9.57;;;1.75;;
75932;SDS011;64803;52.356;5.310;2023-05-24T06:39:49;19.42;;;3.22;;
75932;SDS011;64803;52.356;5.310;2023-05-24T06:42:16;8.77;;;1.63;;
75932;SDS011;64803;52.356;5.310;2023-05-24T06:44:44;11.63;;;2.03;;
75932;SDS011;64803;52.356;5.310;2023-05-24T06:47:11;8.68;;;2.08;;
75932;SDS011;64803;52.356;5.310;2023-05-24T06:49:38;16.33;;;2.33;;
75932;SDS011;64803;52.356;5.310;2023-05-24T06:52:04;10.00;;;1.83;;
75932;SDS011;64803;52.356;5.310;2023-05-24T06:56:58;13.95;;;2.70;;
75932;SDS011;64803;52.356;5.310;2023-05-24T06:59:24;7.13;;;1.52;;
75932;SDS011;64803;52.356;5.310;2023-05-24T07:01:50;8.80;;;1.48;;
75932;SDS011;64803;52.356;5.310;2023-05-24T07:04:22;15.48;;;2.60;;
75932;SDS011;64803;52.356;5.310;2023-05-24T07:06:49;16.30;;;2.30;;
75932;SDS011;64803;52.356;5.310;2023-05-24T07:09:17;9.40;;;1.90;;
75932;SDS011;64803;52.356;5.310;2023-05-24T07:11:43;15.02;;;2.53;;
75932;SDS011;64803;52.356;5.310;2023-05-24T07:14:09;9.68;;;2.05;;
75932;SDS011;64803;52.356;5.310;2023-05-24T07:16:35;13.45;;;2.50;;
75932;SDS011;64803;52.356;5.310;2023-05-24T07:19:01;15.77;;;2.13;;
75932;SDS011;64803;52.356;5.310;2023-05-24T07:21:27;17.75;;;3.15;;
75932;SDS011;64803;52.356;5.310;2023-05-24T07:23:53;11.43;;;1.88;;
75932;SDS011;64803;52.356;5.310;2023-05-24T07:26:19;9.38;;;1.63;;
75932;SDS011;64803;52.356;5.310;2023-05-24T07:28:46;8.02;;;1.48;;
75932;SDS011;64803;52.356;5.310;2023-05-24T07:31:12;13.40;;;2.38;;
75932;SDS011;64803;52.356;5.310;2023-05-24T07:33:39;15.45;;;2.00;;
75932;SDS011;64803;52.356;5.310;2023-05-24T07:36:05;16.27;;;2.60;;
75932;SDS011;64803;52.356;5.310;2023-05-24T07:38:32;17.92;;;2.40;;
75932;SDS011;64803;52.356;5.310;2023-05-24T07:40:59;16.20;;;2.13;;
75932;SDS011;64803;52.356;5.310;2023-05-24T07:45:52;10.95;;;1.63;;
75932;SDS011;64803;52.356;5.310;2023-05-24T07:48:18;15.63;;;2.42;;
75932;SDS011;64803;52.356;5.310;2023-05-24T07:50:45;12.00;;;2.15;;
75932;SDS011;64803;52.356;5.310;2023-05-24T07:53:16;8.95;;;3.53;;
75932;SDS011;64803;52.356;5.310;2023-05-24T07:55:42;10.68;;;1.95;;
75932;SDS011;64803;52.356;5.310;2023-05-24T07:58:09;14.35;;;2.25;;
75932;SDS011;64803;52.356;5.310;2023-05-24T08:00:35;14.77;;;2.42;;
75932;SDS011;64803;52.356;5.310;2023-05-24T08:03:03;9.82;;;2.17;;
75932;SDS011;64803;52.356;5.310;2023-05-24T08:05:30;15.40;;;1.63;;
75932;SDS011;64803;52.356;5.310;2023-05-24T08:07:56;10.00;;;1.67;;
75932;SDS011;64803;52.356;5.310;2023-05-24T08:10:22;8.05;;;1.60;;
75932;SDS011;64803;52.356;5.310;2023-05-24T08:12:49;20.05;;;2.53;;
75932;SDS011;64803;52.356;5.310;2023-05-24T08:15:19;7.93;;;1.92;;
75932;SDS011;64803;52.356;5.310;2023-05-24T08:17:45;10.13;;;1.80;;
75932;SDS011;64803;52.356;5.310;2023-05-24T08:20:11;12.48;;;2.00;;
75932;SDS011;64803;52.356;5.310;2023-05-24T08:22:41;15.48;;;2.95;;
75932;SDS011;64803;52.356;5.310;2023-05-24T08:25:07;9.55;;;1.88;;
75932;SDS011;64803;52.356;5.310;2023-05-24T08:27:34;20.95;;;2.42;;
75932;SDS011;64803;52.356;5.310;2023-05-24T08:30:00;15.80;;;1.90;;
75932;SDS011;64803;52.356;5.310;2023-05-24T08:32:26;6.82;;;1.67;;
75932;SDS011;64803;52.356;5.310;2023-05-24T08:34:52;14.73;;;2.20;;
75932;SDS011;64803;52.356;5.310;2023-05-24T08:37:19;12.98;;;2.80;;
75932;SDS011;64803;52.356;5.310;2023-05-24T08:39:47;16.35;;;2.50;;
75932;SDS011;64803;52.356;5.310;2023-05-24T08:42:13;14.98;;;2.33;;
75932;SDS011;64803;52.356;5.310;2023-05-24T08:44:49;11.05;;;2.00;;
75932;SDS011;64803;52.356;5.310;2023-05-24T08:47:20;13.13;;;1.92;;
75932;SDS011;64803;52.356;5.310;2023-05-24T08:49:47;10.30;;;1.92;;
75932;SDS011;64803;52.356;5.310;2023-05-24T08:52:13;7.30;;;1.92;;
75932;SDS011;64803;52.356;5.310;2023-05-24T08:54:40;10.15;;;2.63;;
75932;SDS011;64803;52.356;5.310;2023-05-24T08:57:08;9.20;;;2.20;;
75932;SDS011;64803;52.356;5.310;2023-05-24T08:59:38;9.15;;;1.83;;
75932;SDS011;64803;52.356;5.310;2023-05-24T09:02:06;15.35;;;2.55;;
75932;SDS011;64803;52.356;5.310;2023-05-24T09:04:36;16.83;;;2.67;;
75932;SDS011;64803;52.356;5.310;2023-05-24T09:07:06;14.63;;;2.47;;
75932;SDS011;64803;52.356;5.310;2023-05-24T09:09:33;13.35;;;2.83;;
75932;SDS011;64803;52.356;5.310;2023-05-24T09:12:01;13.18;;;2.30;;
75932;SDS011;64803;52.356;5.310;2023-05-24T09:14:29;7.50;;;2.00;;
75932;SDS011;64803;52.356;5.310;2023-05-24T09:16:55;9.45;;;1.85;;
75932;SDS011;64803;52.356;5.310;2023-05-24T09:19:22;9.40;;;2.17;;
75932;SDS011;64803;52.356;5.310;2023-05-24T09:21:48;8.15;;;1.77;;
75932;SDS011;64803;52.356;5.310;2023-05-24T09:24:15;11.43;;;1.95;;
75932;SDS011;64803;52.356;5.310;2023-05-24T09:26:41;7.25;;;1.63;;
75932;SDS011;64803;52.356;5.310;2023-05-24T09:29:07;13.63;;;2.10;;
75932;SDS011;64803;52.356;5.310;2023-05-24T09:31:34;10.77;;;2.17;;
75932;SDS011;64803;52.356;5.310;2023-05-24T09:34:01;10.30;;;1.67;;
75932;SDS011;64803;52.356;5.310;2023-05-24T09:36:28;9.27;;;2.15;;
75932;SDS011;64803;52.356;5.310;2023-05-24T09:41:34;13.20;;;1.63;;
75932;SDS011;64803;52.356;5.310;2023-05-24T09:44:01;8.20;;;1.40;;
75932;SDS011;64803;52.356;5.310;2023-05-24T09:46:28;8.20;;;2.17;;
75932;SDS011;64803;52.356;5.310;2023-05-24T09:49:00;13.52;;;2.10;;
75932;SDS011;64803;52.356;5.310;2023-05-24T09:51:31;13.98;;;2.20;;
75932;SDS011;64803;52.356;5.310;2023-05-24T09:54:01;11.55;;;1.65;;
75932;SDS011;64803;52.356;5.310;2023-05-24T09:56:32;7.50;;;1.45;;
75932;SDS011;64803;52.356;5.310;2023-05-24T09:59:03;5.95;;;1.60;;
75932;SDS011;64803;52.356;5.310;2023-05-24T10:01:30;10.63;;;2.22;;
75932;SDS011;64803;52.356;5.310;2023-05-24T10:03:58;16.05;;;1.85;;
75932;SDS011;64803;52.356;5.310;2023-05-24T10:06:29;5.57;;;1.90;;
75932;SDS011;64803;52.356;5.310;2023-05-24T10:09:02;8.77;;;1.88;;
75932;SDS011;64803;52.356;5.310;2023-05-24T10:11:33;7.05;;;2.03;;
75932;SDS011;64803;52.356;5.310;2023-05-24T10:14:05;10.38;;;1.70;;
75932;SDS011;64803;52.356;5.310;2023-05-24T10:16:32;10.25;;;1.40;;
75932;SDS011;64803;52.356;5.310;2023-05-24T10:18:58;12.10;;;1.50;;
75932;SDS011;64803;52.356;5.310;2023-05-24T10:21:24;10.25;;;1.77;;
75932;SDS011;64803;52.356;5.310;2023-05-24T10:23:56;12.15;;;2.13;;
75932;SDS011;64803;52.356;5.310;2023-05-24T10:26:24;13.82;;;2.05;;
75932;SDS011;64803;52.356;5.310;2023-05-24T10:28:59;12.77;;;1.95;;
75932;SDS011;64803;52.356;5.310;2023-05-24T10:31:31;12.68;;;2.17;;
75932;SDS011;64803;52.356;5.310;2023-05-24T10:33:59;10.27;;;1.90;;
75932;SDS011;64803;52.356;5.310;2023-05-24T10:36:28;16.40;;;2.70;;
75932;SDS011;64803;52.356;5.310;2023-05-24T10:38:55;8.35;;;1.40;;
75932;SDS011;64803;52.356;5.310;2023-05-24T10:41:21;12.35;;;2.10;;
75932;SDS011;64803;52.356;5.310;2023-05-24T10:43:51;9.20;;;2.08;;
75932;SDS011;64803;52.356;5.310;2023-05-24T10:46:19;6.47;;;1.73;;
75932;SDS011;64803;52.356;5.310;2023-05-24T10:48:58;7.68;;;1.40;;
75932;SDS011;64803;52.356;5.310;2023-05-24T10:51:35;9.30;;;1.98;;
75932;SDS011;64803;52.356;5.310;2023-05-24T10:54:12;12.75;;;2.25;;
75932;SDS011;64803;52.356;5.310;2023-05-24T10:56:43;7.93;;;1.58;;
75932;SDS011;64803;52.356;5.310;2023-05-24T11:01:55;5.85;;;1.42;;
75932;SDS011;64803;52.356;5.310;2023-05-24T11:04:22;9.68;;;1.42;;
75932;SDS011;64803;52.356;5.310;2023-05-24T11:09:37;9.25;;;1.20;;
75932;SDS011;64803;52.356;5.310;2023-05-24T11:12:17;5.50;;;1.27;;
75932;SDS011;64803;52.356;5.310;2023-05-24T11:14:49;6.85;;;1.88;;
75932;SDS011;64803;52.356;5.310;2023-05-24T11:17:20;7.57;;;1.27;;
75932;SDS011;64803;52.356;5.310;2023-05-24T11:19:53;5.68;;;1.23;;
75932;SDS011;64803;52.356;5.310;2023-05-24T11:22:20;9.35;;;2.15;;
75932;SDS011;64803;52.356;5.310;2023-05-24T11:24:47;6.93;;;1.42;;
75932;SDS011;64803;52.356;5.310;2023-05-24T11:27:13;8.10;;;1.88;;
75932;SDS011;64803;52.356;5.310;2023-05-24T11:29:43;6.53;;;1.50;;
75932;SDS011;64803;52.356;5.310;2023-05-24T11:32:18;7.72;;;1.27;;
75932;SDS011;64803;52.356;5.310;2023-05-24T11:34:46;9.50;;;2.05;;
75932;SDS011;64803;52.356;5.310;2023-05-24T11:37:12;6.75;;;1.42;;
75932;SDS011;64803;52.356;5.310;2023-05-24T11:39:39;7.10;;;1.67;;
75932;SDS011;64803;52.356;5.310;2023-05-24T11:42:06;6.55;;;1.35;;
75932;SDS011;64803;52.356;5.310;2023-05-24T11:44:33;10.43;;;1.20;;
75932;SDS011;64803;52.356;5.310;2023-05-24T11:47:03;9.40;;;1.50;;
75932;SDS011;64803;52.356;5.310;2023-05-24T11:49:31;9.60;;;1.60;;
75932;SDS011;64803;52.356;5.310;2023-05-24T11:51:58;3.03;;;1.25;;
75932;SDS011;64803;52.356;5.310;2023-05-24T11:54:24;7.65;;;1.33;;
75932;SDS011;64803;52.356;5.310;2023-05-24T11:56:52;8.13;;;1.45;;
75932;SDS011;64803;52.356;5.310;2023-05-24T12:01:55;18.33;;;2.45;;
75932;SDS011;64803;52.356;5.310;2023-05-24T12:04:23;13.82;;;1.80;;
75932;SDS011;64803;52.356;5.310;2023-05-24T12:06:49;9.13;;;1.30;;
75932;SDS011;64803;52.356;5.310;2023-05-24T12:09:15;10.27;;;1.30;;
75932;SDS011;64803;52.356;5.310;2023-05-24T12:11:45;12.50;;;1.92;;
75932;SDS011;64803;52.356;5.310;2023-05-24T12:14:12;7.28;;;1.95;;
75932;SDS011;64803;52.356;5.310;2023-05-24T12:16:40;8.70;;;1.42;;
75932;SDS011;64803;52.356;5.310;2023-05-24T12:19:07;5.60;;;1.55;;
75932;SDS011;64803;52.356;5.310;2023-05-24T12:21:41;4.43;;;1.17;;
75932;SDS011;64803;52.356;5.310;2023-05-24T12:24:07;7.75;;;1.35;;
75932;SDS011;64803;52.356;5.310;2023-05-24T12:26:36;5.55;;;1.38;;
75932;SDS011;64803;52.356;5.310;2023-05-24T12:29:05;8.45;;;1.35;;
75932;SDS011;64803;52.356;5.310;2023-05-24T12:31:31;6.50;;;1.20;;
75932;SDS011;64803;52.356;5.310;2023-05-24T12:33:58;11.93;;;2.03;;
75932;SDS011;64803;52.356;5.310;2023-05-24T12:36:24;7.05;;;1.20;;
75932;SDS011;64803;52.356;5.310;2023-05-24T12:38:55;9.43;;;1.30;;
75932;SDS011;64803;52.356;5.310;2023-05-24T12:41:21;7.38;;;1.70;;
75932;SDS011;64803;52.356;5.310;2023-05-24T12:43:49;3.78;;;0.93;;
75932;SDS011;64803;52.356;5.310;2023-05-24T12:46:16;8.18;;;1.90;;
75932;SDS011;64803;52.356;5.310;2023-05-24T12:48:42;8.57;;;1.42;;
75932;SDS011;64803;52.356;5.310;2023-05-24T12:51:08;7.30;;;1.38;;
75932;SDS011;64803;52.356;5.310;2023-05-24T12:53:35;7.93;;;1.70;;
75932;SDS011;64803;52.356;5.310;2023-05-24T12:56:01;11.15;;;1.40;;
75932;SDS011;64803;52.356;5.310;2023-05-24T12:58:28;10.93;;;1.70;;
75932;SDS011;64803;52.356;5.310;2023-05-24T13:00:53;8.63;;;1.27;;
75932;SDS011;64803;52.356;5.310;2023-05-24T13:03:19;12.98;;;2.17;;
75932;SDS011;64803;52.356;5.310;2023-05-24T13:05:45;8.93;;;1.67;;
75932;SDS011;64803;52.356;5.310;2023-05-24T13:08:11;9.73;;;1.58;;
75932;SDS011;64803;52.356;5.310;2023-05-24T13:10:38;11.00;;;1.42;;
75932;SDS011;64803;52.356;5.310;2023-05-24T13:13:05;5.72;;;1.85;;
75932;SDS011;64803;52.356;5.310;2023-05-24T13:15:31;6.15;;;1.55;;
75932;SDS011;64803;52.356;5.310;2023-05-24T13:17:57;8.95;;;1.73;;
75932;SDS011;64803;52.356;5.310;2023-05-24T13:20:24;9.23;;;1.60;;
75932;SDS011;64803;52.356;5.310;2023-05-24T13:22:50;6.97;;;1.60;;
75932;SDS011;64803;52.356;5.310;2023-05-24T13:25:16;10.02;;;1.85;;
75932;SDS011;64803;52.356;5.310;2023-05-24T13:27:42;6.75;;;1.80;;
75932;SDS011;64803;52.356;5.310;2023-05-24T13:30:08;5.07;;;0.75;;
75932;SDS011;64803;52.356;5.310;2023-05-24T13:32:34;8.10;;;1.58;;
75932;SDS011;64803;52.356;5.310;2023-05-24T13:35:00;7.10;;;1.13;;
75932;SDS011;64803;52.356;5.310;2023-05-24T13:37:26;9.15;;;2.00;;
75932;SDS011;64803;52.356;5.310;2023-05-24T13:39:52;9.73;;;1.67;;
75932;SDS011;64803;52.356;5.310;2023-05-24T13:42:18;4.53;;;1.38;;
75932;SDS011;64803;52.356;5.310;2023-05-24T13:44:45;4.78;;;1.10;;
75932;SDS011;64803;52.356;5.310;2023-05-24T13:47:11;5.30;;;1.52;;
75932;SDS011;64803;52.356;5.310;2023-05-24T13:49:38;8.50;;;1.65;;
75932;SDS011;64803;52.356;5.310;2023-05-24T13:52:04;8.93;;;1.70;;
75932;SDS011;64803;52.356;5.310;2023-05-24T13:54:30;9.75;;;1.63;;
75932;SDS011;64803;52.356;5.310;2023-05-24T13:56:56;8.45;;;1.67;;
75932;SDS011;64803;52.356;5.310;2023-05-24T13:59:22;8.25;;;1.92;;
75932;SDS011;64803;52.356;5.310;2023-05-24T14:01:49;10.52;;;2.00;;
75932;SDS011;64803;52.356;5.310;2023-05-24T14:04:15;6.10;;;1.33;;
75932;SDS011;64803;52.356;5.310;2023-05-24T14:06:41;3.95;;;1.02;;
75932;SDS011;64803;52.356;5.310;2023-05-24T14:09:07;9.75;;;2.03;;
75932;SDS011;64803;52.356;5.310;2023-05-24T14:11:33;7.50;;;1.63;;
75932;SDS011;64803;52.356;5.310;2023-05-24T14:14:00;8.82;;;1.42;;
75932;SDS011;64803;52.356;5.310;2023-05-24T14:16:27;12.80;;;1.85;;
75932;SDS011;64803;52.356;5.310;2023-05-24T14:18:53;7.85;;;1.73;;
75932;SDS011;64803;52.356;5.310;2023-05-24T14:21:20;5.85;;;1.58;;
75932;SDS011;64803;52.356;5.310;2023-05-24T14:23:46;7.40;;;1.80;;
75932;SDS011;64803;52.356;5.310;2023-05-24T14:26:12;10.98;;;1.67;;
75932;SDS011;64803;52.356;5.310;2023-05-24T14:28:38;6.03;;;1.38;;
75932;SDS011;64803;52.356;5.310;2023-05-24T14:31:04;14.90;;;2.45;;
75932;SDS011;64803;52.356;5.310;2023-05-24T14:33:30;10.35;;;1.95;;
75932;SDS011;64803;52.356;5.310;2023-05-24T14:35:56;7.35;;;1.98;;
75932;SDS011;64803;52.356;5.310;2023-05-24T14:38:22;8.90;;;1.85;;
75932;SDS011;64803;52.356;5.310;2023-05-24T14:40:49;5.00;;;1.30;;
75932;SDS011;64803;52.356;5.310;2023-05-24T14:43:15;5.93;;;1.75;;
75932;SDS011;64803;52.356;5.310;2023-05-24T14:45:42;7.40;;;1.33;;
75932;SDS011;64803;52.356;5.310;2023-05-24T14:48:08;9.23;;;1.98;;
75932;SDS011;64803;52.356;5.310;2023-05-24T14:50:39;8.23;;;1.50;;
75932;SDS011;64803;52.356;5.310;2023-05-24T14:53:05;8.13;;;1.55;;
75932;SDS011;64803;52.356;5.310;2023-05-24T14:55:36;6.85;;;1.83;;
75932;SDS011;64803;52.356;5.310;2023-05-24T14:58:04;10.02;;;1.75;;
75932;SDS011;64803;52.356;5.310;2023-05-24T15:00:34;11.05;;;1.98;;
75932;SDS011;64803;52.356;5.310;2023-05-24T15:03:00;7.13;;;1.90;;
75932;SDS011;64803;52.356;5.310;2023-05-24T15:05:27;8.40;;;1.58;;
75932;SDS011;64803;52.356;5.310;2023-05-24T15:07:53;6.43;;;1.35;;
75932;SDS011;64803;52.356;5.310;2023-05-24T15:10:19;4.47;;;1.13;;